sensor_id;sensor_type;location;lat;lon;timestamp;P1;durP1;ratioP1;P2;durP2;ratioP2
3343;SDS011;1685;53.104;8.228;2024-02-14T00:00:06;5.70;;;4.30;;
3343;SDS011;1685;53.104;8.228;2024-02-14T00:02:38;5.97;;;5.30;;
3343;SDS011;1685;53.104;8.228;2024-02-14T00:05:06;5.40;;;4.90;;
3343;SDS011;1685;53.104;8.228;2024-02-14T00:07:36;6.27;;;4.53;;
3343;SDS011;1685;53.104;8.228;2024-02-14T00:10:04;9.00;;;5.33;;
3343;SDS011;1685;53.104;8.228;2024-02-14T00:12:32;6.63;;;4.53;;
3343;SDS011;1685;53.104;8.228;2024-02-14T00:15:00;6.10;;;5.50;;
3343;SDS011;1685;53.104;8.228;2024-02-14T00:17:28;8.77;;;5.23;;
3343;SDS011;1685;53.104;8.228;2024-02-14T00:19:55;8.00;;;6.60;;
3343;SDS011;1685;53.104;8.228;2024-02-14T00:22:23;5.93;;;5.33;;
3343;SDS011;1685;53.104;8.228;2024-02-14T00:24:51;7.33;;;5.40;;
3343;SDS011;1685;53.104;8.228;2024-02-14T00:27:18;7.77;;;5.20;;
3343;SDS011;1685;53.104;8.228;2024-02-14T00:29:45;7.13;;;6.43;;
3343;SDS011;1685;53.104;8.228;2024-02-14T00:32:13;9.60;;;5.37;;
3343;SDS011;1685;53.104;8.228;2024-02-14T00:34:40;14.37;;;6.37;;
3343;SDS011;1685;53.104;8.228;2024-02-14T00:37:08;10.33;;;7.00;;
3343;SDS011;1685;53.104;8.228;2024-02-14T00:39:35;7.00;;;6.30;;
3343;SDS011;1685;53.104;8.228;2024-02-14T00:42:04;8.40;;;7.00;;
3343;SDS011;1685;53.104;8.228;2024-02-14T00:44:31;6.87;;;6.27;;
3343;SDS011;1685;53.104;8.228;2024-02-14T00:46:58;12.23;;;7.57;;
3343;SDS011;1685;53.104;8.228;2024-02-14T00:49:27;9.90;;;7.63;;
3343;SDS011;1685;53.104;8.228;2024-02-14T00:51:54;7.33;;;6.60;;
3343;SDS011;1685;53.104;8.228;2024-02-14T00:54:21;8.87;;;6.90;;
3343;SDS011;1685;53.104;8.228;2024-02-14T00:56:48;8.73;;;7.90;;
3343;SDS011;1685;53.104;8.228;2024-02-14T00:59:17;9.93;;;7.23;;
3343;SDS011;1685;53.104;8.228;2024-02-14T01:01:44;9.30;;;8.00;;
3343;SDS011;1685;53.104;8.228;2024-02-14T01:04:11;11.90;;;7.80;;
3343;SDS011;1685;53.104;8.228;2024-02-14T01:06:38;10.43;;;7.20;;
3343;SDS011;1685;53.104;8.228;2024-02-14T01:09:05;11.90;;;7.70;;
3343;SDS011;1685;53.104;8.228;2024-02-14T01:11:33;12.43;;;7.97;;
3343;SDS011;1685;53.104;8.228;2024-02-14T01:14:01;9.33;;;8.10;;
3343;SDS011;1685;53.104;8.228;2024-02-14T01:16:30;12.90;;;8.17;;
3343;SDS011;1685;53.104;8.228;2024-02-14T01:18:57;14.00;;;8.93;;
3343;SDS011;1685;53.104;8.228;2024-02-14T01:21:24;12.17;;;9.07;;
3343;SDS011;1685;53.104;8.228;2024-02-14T01:23:51;9.87;;;8.63;;
3343;SDS011;1685;53.104;8.228;2024-02-14T01:26:18;13.47;;;8.80;;
3343;SDS011;1685;53.104;8.228;2024-02-14T01:28:46;12.83;;;8.97;;
3343;SDS011;1685;53.104;8.228;2024-02-14T01:31:13;12.93;;;9.10;;
3343;SDS011;1685;53.104;8.228;2024-02-14T01:33:42;12.80;;;7.93;;
3343;SDS011;1685;53.104;8.228;2024-02-14T01:36:11;11.10;;;8.20;;
3343;SDS011;1685;53.104;8.228;2024-02-14T01:38:38;11.77;;;8.13;;
3343;SDS011;1685;53.104;8.228;2024-02-14T01:41:05;15.07;;;9.27;;
3343;SDS011;1685;53.104;8.228;2024-02-14T01:43:32;13.27;;;8.97;;
3343;SDS011;1685;53.104;8.228;2024-02-14T01:46:03;10.70;;;8.13;;
3343;SDS011;1685;53.104;8.228;2024-02-14T01:48:32;12.40;;;9.23;;
3343;SDS011;1685;53.104;8.228;2024-02-14T01:51:01;15.70;;;8.83;;
3343;SDS011;1685;53.104;8.228;2024-02-14T01:53:29;13.07;;;8.53;;
3343;SDS011;1685;53.104;8.228;2024-02-14T01:55:57;13.13;;;10.20;;
3343;SDS011;1685;53.104;8.228;2024-02-14T01:58:24;19.27;;;10.90;;
3343;SDS011;1685;53.104;8.228;2024-02-14T02:00:51;11.87;;;8.80;;
3343;SDS011;1685;53.104;8.228;2024-02-14T02:03:22;15.90;;;10.50;;
3343;SDS011;1685;53.104;8.228;2024-02-14T02:05:49;16.00;;;10.10;;
3343;SDS011;1685;53.104;8.228;2024-02-14T02:08:17;19.10;;;9.17;;
3343;SDS011;1685;53.104;8.228;2024-02-14T02:10:44;13.40;;;10.50;;
3343;SDS011;1685;53.104;8.228;2024-02-14T02:13:12;16.33;;;9.90;;
3343;SDS011;1685;53.104;8.228;2024-02-14T02:15:42;19.73;;;11.10;;
3343;SDS011;1685;53.104;8.228;2024-02-14T02:18:10;13.10;;;9.93;;
3343;SDS011;1685;53.104;8.228;2024-02-14T02:20:38;12.87;;;10.67;;
3343;SDS011;1685;53.104;8.228;2024-02-14T02:23:13;16.60;;;12.23;;
3343;SDS011;1685;53.104;8.228;2024-02-14T02:25:40;21.83;;;11.40;;
3343;SDS011;1685;53.104;8.228;2024-02-14T02:28:08;15.70;;;11.90;;
3343;SDS011;1685;53.104;8.228;2024-02-14T02:30:35;16.90;;;12.17;;
3343;SDS011;1685;53.104;8.228;2024-02-14T02:33:02;17.83;;;11.60;;
3343;SDS011;1685;53.104;8.228;2024-02-14T02:35:30;17.13;;;12.87;;
3343;SDS011;1685;53.104;8.228;2024-02-14T02:37:57;18.30;;;12.30;;
3343;SDS011;1685;53.104;8.228;2024-02-14T02:40:25;15.97;;;12.63;;
3343;SDS011;1685;53.104;8.228;2024-02-14T02:42:53;17.80;;;12.53;;
3343;SDS011;1685;53.104;8.228;2024-02-14T02:45:20;20.43;;;14.20;;
3343;SDS011;1685;53.104;8.228;2024-02-14T02:47:47;18.63;;;12.37;;
3343;SDS011;1685;53.104;8.228;2024-02-14T02:50:16;21.73;;;14.03;;
3343;SDS011;1685;53.104;8.228;2024-02-14T02:52:44;17.27;;;12.67;;
3343;SDS011;1685;53.104;8.228;2024-02-14T02:55:12;22.90;;;14.97;;
3343;SDS011;1685;53.104;8.228;2024-02-14T02:57:41;25.70;;;14.13;;
3343;SDS011;1685;53.104;8.228;2024-02-14T03:00:10;21.17;;;15.13;;
3343;SDS011;1685;53.104;8.228;2024-02-14T03:02:39;22.80;;;15.00;;
3343;SDS011;1685;53.104;8.228;2024-02-14T03:05:09;20.27;;;14.30;;
3343;SDS011;1685;53.104;8.228;2024-02-14T03:07:42;22.60;;;15.53;;
3343;SDS011;1685;53.104;8.228;2024-02-14T03:10:10;21.83;;;15.63;;
3343;SDS011;1685;53.104;8.228;2024-02-14T03:12:37;20.27;;;15.97;;
3343;SDS011;1685;53.104;8.228;2024-02-14T03:15:07;19.13;;;15.30;;
3343;SDS011;1685;53.104;8.228;2024-02-14T03:17:35;19.67;;;15.90;;
3343;SDS011;1685;53.104;8.228;2024-02-14T03:20:02;21.00;;;16.47;;
3343;SDS011;1685;53.104;8.228;2024-02-14T03:22:35;22.63;;;16.10;;
3343;SDS011;1685;53.104;8.228;2024-02-14T03:25:03;24.97;;;15.93;;
3343;SDS011;1685;53.104;8.228;2024-02-14T03:27:30;26.67;;;16.83;;
3343;SDS011;1685;53.104;8.228;2024-02-14T03:29:57;21.60;;;17.30;;
3343;SDS011;1685;53.104;8.228;2024-02-14T03:32:29;23.70;;;17.73;;
3343;SDS011;1685;53.104;8.228;2024-02-14T03:34:56;26.53;;;17.93;;
3343;SDS011;1685;53.104;8.228;2024-02-14T03:37:23;22.50;;;17.10;;
3343;SDS011;1685;53.104;8.228;2024-02-14T03:39:50;28.37;;;17.57;;
3343;SDS011;1685;53.104;8.228;2024-02-14T03:42:17;24.67;;;18.20;;
3343;SDS011;1685;53.104;8.228;2024-02-14T03:44:45;25.00;;;17.50;;
3343;SDS011;1685;53.104;8.228;2024-02-14T03:47:12;23.87;;;17.73;;
3343;SDS011;1685;53.104;8.228;2024-02-14T03:49:40;23.50;;;16.27;;
3343;SDS011;1685;53.104;8.228;2024-02-14T03:52:07;23.53;;;16.83;;
3343;SDS011;1685;53.104;8.228;2024-02-14T03:54:36;22.07;;;17.03;;
3343;SDS011;1685;53.104;8.228;2024-02-14T03:57:04;24.90;;;16.03;;
3343;SDS011;1685;53.104;8.228;2024-02-14T03:59:35;21.83;;;15.40;;
3343;SDS011;1685;53.104;8.228;2024-02-14T04:02:04;28.57;;;18.37;;
3343;SDS011;1685;53.104;8.228;2024-02-14T04:04:31;25.27;;;17.17;;
3343;SDS011;1685;53.104;8.228;2024-02-14T04:07:01;23.90;;;17.30;;
3343;SDS011;1685;53.104;8.228;2024-02-14T04:09:28;24.03;;;17.33;;
3343;SDS011;1685;53.104;8.228;2024-02-14T04:11:56;23.20;;;16.80;;
3343;SDS011;1685;53.104;8.228;2024-02-14T04:14:23;23.47;;;16.80;;
3343;SDS011;1685;53.104;8.228;2024-02-14T04:16:50;23.60;;;17.03;;
3343;SDS011;1685;53.104;8.228;2024-02-14T04:19:17;29.20;;;17.20;;
3343;SDS011;1685;53.104;8.228;2024-02-14T04:21:45;21.90;;;16.00;;
3343;SDS011;1685;53.104;8.228;2024-02-14T04:24:13;24.47;;;16.70;;
3343;SDS011;1685;53.104;8.228;2024-02-14T04:26:40;26.80;;;17.50;;
3343;SDS011;1685;53.104;8.228;2024-02-14T04:29:08;20.77;;;16.57;;
3343;SDS011;1685;53.104;8.228;2024-02-14T04:31:35;23.23;;;16.80;;
3343;SDS011;1685;53.104;8.228;2024-02-14T04:34:03;23.37;;;15.63;;
3343;SDS011;1685;53.104;8.228;2024-02-14T04:36:32;22.40;;;16.90;;
3343;SDS011;1685;53.104;8.228;2024-02-14T04:39:00;23.13;;;16.13;;
3343;SDS011;1685;53.104;8.228;2024-02-14T04:41:29;24.23;;;16.80;;
3343;SDS011;1685;53.104;8.228;2024-02-14T04:43:56;22.53;;;15.13;;
3343;SDS011;1685;53.104;8.228;2024-02-14T04:46:23;26.10;;;17.70;;
3343;SDS011;1685;53.104;8.228;2024-02-14T04:48:50;19.60;;;14.33;;
3343;SDS011;1685;53.104;8.228;2024-02-14T04:51:17;22.87;;;16.53;;
3343;SDS011;1685;53.104;8.228;2024-02-14T04:53:47;21.57;;;16.40;;
3343;SDS011;1685;53.104;8.228;2024-02-14T04:56:13;20.40;;;14.70;;
3343;SDS011;1685;53.104;8.228;2024-02-14T04:58:42;21.33;;;16.07;;
3343;SDS011;1685;53.104;8.228;2024-02-14T05:01:09;21.63;;;16.97;;
3343;SDS011;1685;53.104;8.228;2024-02-14T05:03:36;24.13;;;16.47;;
3343;SDS011;1685;53.104;8.228;2024-02-14T05:06:03;21.57;;;15.57;;
3343;SDS011;1685;53.104;8.228;2024-02-14T05:08:30;23.87;;;17.07;;
3343;SDS011;1685;53.104;8.228;2024-02-14T05:10:58;22.20;;;15.67;;
3343;SDS011;1685;53.104;8.228;2024-02-14T05:13:26;22.80;;;15.27;;
3343;SDS011;1685;53.104;8.228;2024-02-14T05:15:54;23.83;;;17.30;;
3343;SDS011;1685;53.104;8.228;2024-02-14T05:18:21;23.40;;;16.77;;
3343;SDS011;1685;53.104;8.228;2024-02-14T05:20:48;23.30;;;16.70;;
3343;SDS011;1685;53.104;8.228;2024-02-14T05:23:16;23.43;;;16.10;;
3343;SDS011;1685;53.104;8.228;2024-02-14T05:25:43;22.73;;;15.53;;
3343;SDS011;1685;53.104;8.228;2024-02-14T05:28:10;22.90;;;15.67;;
3343;SDS011;1685;53.104;8.228;2024-02-14T05:30:39;25.13;;;15.17;;
3343;SDS011;1685;53.104;8.228;2024-02-14T05:33:07;21.33;;;15.60;;
3343;SDS011;1685;53.104;8.228;2024-02-14T05:35:34;23.50;;;15.90;;
3343;SDS011;1685;53.104;8.228;2024-02-14T05:38:01;19.53;;;15.00;;
3343;SDS011;1685;53.104;8.228;2024-02-14T05:40:32;21.13;;;15.70;;
3343;SDS011;1685;53.104;8.228;2024-02-14T05:43:04;23.13;;;15.27;;
3343;SDS011;1685;53.104;8.228;2024-02-14T05:45:32;23.13;;;15.50;;
3343;SDS011;1685;53.104;8.228;2024-02-14T05:47:59;22.07;;;14.97;;
3343;SDS011;1685;53.104;8.228;2024-02-14T05:50:28;22.27;;;15.07;;
3343;SDS011;1685;53.104;8.228;2024-02-14T05:52:55;21.77;;;14.97;;
3343;SDS011;1685;53.104;8.228;2024-02-14T05:55:23;21.33;;;15.03;;
3343;SDS011;1685;53.104;8.228;2024-02-14T05:57:50;20.10;;;14.00;;
3343;SDS011;1685;53.104;8.228;2024-02-14T06:00:18;18.60;;;13.50;;
3343;SDS011;1685;53.104;8.228;2024-02-14T06:02:45;18.50;;;13.37;;
3343;SDS011;1685;53.104;8.228;2024-02-14T06:05:13;16.60;;;12.50;;
3343;SDS011;1685;53.104;8.228;2024-02-14T06:07:42;16.80;;;11.80;;
3343;SDS011;1685;53.104;8.228;2024-02-14T06:10:10;17.00;;;12.57;;
3343;SDS011;1685;53.104;8.228;2024-02-14T06:12:37;16.90;;;12.00;;
3343;SDS011;1685;53.104;8.228;2024-02-14T06:15:06;17.77;;;11.37;;
3343;SDS011;1685;53.104;8.228;2024-02-14T06:17:33;16.67;;;11.60;;
3343;SDS011;1685;53.104;8.228;2024-02-14T06:20:00;15.70;;;10.40;;
3343;SDS011;1685;53.104;8.228;2024-02-14T06:22:31;17.80;;;12.07;;
3343;SDS011;1685;53.104;8.228;2024-02-14T06:25:00;12.40;;;10.07;;
3343;SDS011;1685;53.104;8.228;2024-02-14T06:27:29;13.07;;;10.57;;
3343;SDS011;1685;53.104;8.228;2024-02-14T06:29:57;13.30;;;9.50;;
3343;SDS011;1685;53.104;8.228;2024-02-14T06:32:25;12.13;;;9.27;;
3343;SDS011;1685;53.104;8.228;2024-02-14T06:34:52;13.87;;;9.87;;
3343;SDS011;1685;53.104;8.228;2024-02-14T06:37:20;14.00;;;10.00;;
3343;SDS011;1685;53.104;8.228;2024-02-14T06:39:47;12.93;;;9.17;;
3343;SDS011;1685;53.104;8.228;2024-02-14T06:42:16;12.27;;;9.17;;
3343;SDS011;1685;53.104;8.228;2024-02-14T06:44:43;12.13;;;9.93;;
3343;SDS011;1685;53.104;8.228;2024-02-14T06:47:10;15.03;;;9.40;;
3343;SDS011;1685;53.104;8.228;2024-02-14T06:49:38;12.40;;;9.37;;
3343;SDS011;1685;53.104;8.228;2024-02-14T06:52:05;11.60;;;9.00;;
3343;SDS011;1685;53.104;8.228;2024-02-14T06:54:32;13.57;;;9.13;;
3343;SDS011;1685;53.104;8.228;2024-02-14T06:56:59;12.37;;;8.20;;
3343;SDS011;1685;53.104;8.228;2024-02-14T06:59:28;15.40;;;9.67;;
3343;SDS011;1685;53.104;8.228;2024-02-14T07:01:55;13.50;;;9.70;;
3343;SDS011;1685;53.104;8.228;2024-02-14T07:04:22;19.00;;;9.93;;
3343;SDS011;1685;53.104;8.228;2024-02-14T07:06:51;13.00;;;9.60;;
3343;SDS011;1685;53.104;8.228;2024-02-14T07:09:18;12.97;;;9.63;;
3343;SDS011;1685;53.104;8.228;2024-02-14T07:11:46;14.57;;;10.60;;
3343;SDS011;1685;53.104;8.228;2024-02-14T07:14:13;13.60;;;9.70;;
3343;SDS011;1685;53.104;8.228;2024-02-14T07:16:41;14.27;;;10.23;;
3343;SDS011;1685;53.104;8.228;2024-02-14T07:19:08;15.13;;;9.80;;
3343;SDS011;1685;53.104;8.228;2024-02-14T07:21:35;12.63;;;8.77;;
3343;SDS011;1685;53.104;8.228;2024-02-14T07:24:03;13.50;;;9.47;;
3343;SDS011;1685;53.104;8.228;2024-02-14T07:26:30;11.50;;;9.10;;
3343;SDS011;1685;53.104;8.228;2024-02-14T07:28:58;15.30;;;10.20;;
3343;SDS011;1685;53.104;8.228;2024-02-14T07:31:28;12.87;;;9.50;;
3343;SDS011;1685;53.104;8.228;2024-02-14T07:33:57;11.07;;;9.03;;
3343;SDS011;1685;53.104;8.228;2024-02-14T07:36:24;10.90;;;8.40;;
3343;SDS011;1685;53.104;8.228;2024-02-14T07:38:51;14.00;;;9.70;;
3343;SDS011;1685;53.104;8.228;2024-02-14T07:41:18;10.60;;;8.40;;
3343;SDS011;1685;53.104;8.228;2024-02-14T07:43:45;11.60;;;8.77;;
3343;SDS011;1685;53.104;8.228;2024-02-14T07:46:16;13.40;;;8.50;;
3343;SDS011;1685;53.104;8.228;2024-02-14T07:48:43;12.63;;;8.00;;
3343;SDS011;1685;53.104;8.228;2024-02-14T07:51:12;9.97;;;7.27;;
3343;SDS011;1685;53.104;8.228;2024-02-14T07:53:39;16.20;;;8.10;;
3343;SDS011;1685;53.104;8.228;2024-02-14T07:56:06;12.77;;;8.17;;
3343;SDS011;1685;53.104;8.228;2024-02-14T07:58:34;11.43;;;8.27;;
3343;SDS011;1685;53.104;8.228;2024-02-14T08:01:01;8.93;;;7.13;;
3343;SDS011;1685;53.104;8.228;2024-02-14T08:03:29;9.33;;;7.63;;
3343;SDS011;1685;53.104;8.228;2024-02-14T08:05:56;9.43;;;7.20;;
3343;SDS011;1685;53.104;8.228;2024-02-14T08:08:25;9.63;;;7.03;;
3343;SDS011;1685;53.104;8.228;2024-02-14T08:10:53;9.47;;;6.80;;
3343;SDS011;1685;53.104;8.228;2024-02-14T08:13:20;11.70;;;6.77;;
3343;SDS011;1685;53.104;8.228;2024-02-14T08:15:47;8.97;;;6.97;;
3343;SDS011;1685;53.104;8.228;2024-02-14T08:18:14;9.60;;;6.90;;
3343;SDS011;1685;53.104;8.228;2024-02-14T08:20:42;10.73;;;6.83;;
3343;SDS011;1685;53.104;8.228;2024-02-14T08:23:09;8.77;;;6.50;;
3343;SDS011;1685;53.104;8.228;2024-02-14T08:25:37;8.20;;;7.10;;
3343;SDS011;1685;53.104;8.228;2024-02-14T08:28:06;11.63;;;7.10;;
3343;SDS011;1685;53.104;8.228;2024-02-14T08:30:33;9.30;;;6.40;;
3343;SDS011;1685;53.104;8.228;2024-02-14T08:33:00;10.27;;;7.00;;
3343;SDS011;1685;53.104;8.228;2024-02-14T08:35:28;11.20;;;6.90;;
3343;SDS011;1685;53.104;8.228;2024-02-14T08:37:55;10.87;;;6.80;;
3343;SDS011;1685;53.104;8.228;2024-02-14T08:40:22;8.77;;;6.67;;
3343;SDS011;1685;53.104;8.228;2024-02-14T08:42:51;13.57;;;7.60;;
3343;SDS011;1685;53.104;8.228;2024-02-14T08:45:17;8.03;;;6.90;;
3343;SDS011;1685;53.104;8.228;2024-02-14T08:47:45;11.30;;;7.83;;
3343;SDS011;1685;53.104;8.228;2024-02-14T08:50:12;12.10;;;7.60;;
3343;SDS011;1685;53.104;8.228;2024-02-14T08:52:40;10.57;;;6.47;;
3343;SDS011;1685;53.104;8.228;2024-02-14T08:55:07;12.47;;;8.20;;
3343;SDS011;1685;53.104;8.228;2024-02-14T08:57:39;13.53;;;7.30;;
3343;SDS011;1685;53.104;8.228;2024-02-14T09:00:08;15.53;;;7.17;;
3343;SDS011;1685;53.104;8.228;2024-02-14T09:02:40;10.80;;;7.20;;
3343;SDS011;1685;53.104;8.228;2024-02-14T09:05:07;13.33;;;7.50;;
3343;SDS011;1685;53.104;8.228;2024-02-14T09:07:35;13.43;;;7.50;;
3343;SDS011;1685;53.104;8.228;2024-02-14T09:10:02;15.37;;;8.60;;
3343;SDS011;1685;53.104;8.228;2024-02-14T09:12:30;11.40;;;7.50;;
3343;SDS011;1685;53.104;8.228;2024-02-14T09:14:58;10.97;;;7.30;;
3343;SDS011;1685;53.104;8.228;2024-02-14T09:17:27;14.73;;;7.50;;
3343;SDS011;1685;53.104;8.228;2024-02-14T09:19:54;16.07;;;9.63;;
3343;SDS011;1685;53.104;8.228;2024-02-14T09:22:21;20.27;;;9.03;;
3343;SDS011;1685;53.104;8.228;2024-02-14T09:24:48;16.60;;;9.27;;
3343;SDS011;1685;53.104;8.228;2024-02-14T09:27:15;15.80;;;8.67;;
3343;SDS011;1685;53.104;8.228;2024-02-14T09:29:42;18.47;;;10.00;;
3343;SDS011;1685;53.104;8.228;2024-02-14T09:32:09;12.80;;;8.00;;
3343;SDS011;1685;53.104;8.228;2024-02-14T09:34:38;17.97;;;8.70;;
3343;SDS011;1685;53.104;8.228;2024-02-14T09:37:05;21.77;;;8.67;;
3343;SDS011;1685;53.104;8.228;2024-02-14T09:39:31;16.83;;;9.70;;
3343;SDS011;1685;53.104;8.228;2024-02-14T09:42:01;16.53;;;9.57;;
3343;SDS011;1685;53.104;8.228;2024-02-14T09:44:34;16.10;;;8.70;;
3343;SDS011;1685;53.104;8.228;2024-02-14T09:47:03;18.77;;;10.03;;
3343;SDS011;1685;53.104;8.228;2024-02-14T09:49:32;17.80;;;9.70;;
3343;SDS011;1685;53.104;8.228;2024-02-14T09:52:01;18.57;;;10.10;;
3343;SDS011;1685;53.104;8.228;2024-02-14T09:54:29;22.83;;;11.30;;
3343;SDS011;1685;53.104;8.228;2024-02-14T09:56:59;22.10;;;11.37;;
3343;SDS011;1685;53.104;8.228;2024-02-14T09:59:27;18.83;;;10.90;;
3343;SDS011;1685;53.104;8.228;2024-02-14T10:01:55;24.20;;;10.70;;
3343;SDS011;1685;53.104;8.228;2024-02-14T10:04:23;18.40;;;9.73;;
3343;SDS011;1685;53.104;8.228;2024-02-14T10:06:50;21.00;;;10.70;;
3343;SDS011;1685;53.104;8.228;2024-02-14T10:09:20;28.37;;;12.70;;
3343;SDS011;1685;53.104;8.228;2024-02-14T10:11:47;26.73;;;11.33;;
3343;SDS011;1685;53.104;8.228;2024-02-14T10:14:14;27.73;;;12.17;;
3343;SDS011;1685;53.104;8.228;2024-02-14T10:16:41;25.83;;;12.00;;
3343;SDS011;1685;53.104;8.228;2024-02-14T10:19:14;30.07;;;12.67;;
3343;SDS011;1685;53.104;8.228;2024-02-14T10:21:42;24.37;;;12.20;;
3343;SDS011;1685;53.104;8.228;2024-02-14T10:24:09;27.63;;;12.60;;
3343;SDS011;1685;53.104;8.228;2024-02-14T10:26:38;25.87;;;13.23;;
3343;SDS011;1685;53.104;8.228;2024-02-14T10:29:05;28.83;;;13.47;;
3343;SDS011;1685;53.104;8.228;2024-02-14T10:31:35;30.80;;;12.50;;
3343;SDS011;1685;53.104;8.228;2024-02-14T10:34:02;26.40;;;12.80;;
3343;SDS011;1685;53.104;8.228;2024-02-14T10:36:32;28.03;;;13.80;;
3343;SDS011;1685;53.104;8.228;2024-02-14T10:39:00;30.17;;;12.70;;
3343;SDS011;1685;53.104;8.228;2024-02-14T10:41:30;22.83;;;12.20;;
3343;SDS011;1685;53.104;8.228;2024-02-14T10:44:02;27.27;;;12.57;;
3343;SDS011;1685;53.104;8.228;2024-02-14T10:46:31;25.23;;;12.80;;
3343;SDS011;1685;53.104;8.228;2024-02-14T10:49:02;24.67;;;11.73;;
3343;SDS011;1685;53.104;8.228;2024-02-14T10:51:30;28.93;;;13.03;;
3343;SDS011;1685;53.104;8.228;2024-02-14T10:53:58;27.60;;;12.37;;
3343;SDS011;1685;53.104;8.228;2024-02-14T10:56:27;33.47;;;15.80;;
3343;SDS011;1685;53.104;8.228;2024-02-14T10:58:56;26.80;;;13.43;;
3343;SDS011;1685;53.104;8.228;2024-02-14T11:01:25;28.23;;;13.67;;
3343;SDS011;1685;53.104;8.228;2024-02-14T11:03:56;28.57;;;13.87;;
3343;SDS011;1685;53.104;8.228;2024-02-14T11:06:23;25.90;;;12.60;;
3343;SDS011;1685;53.104;8.228;2024-02-14T11:08:57;28.47;;;13.07;;
3343;SDS011;1685;53.104;8.228;2024-02-14T11:11:27;35.67;;;13.23;;
3343;SDS011;1685;53.104;8.228;2024-02-14T11:13:55;26.20;;;11.57;;
3343;SDS011;1685;53.104;8.228;2024-02-14T11:16:26;22.87;;;11.77;;
3343;SDS011;1685;53.104;8.228;2024-02-14T11:18:54;28.27;;;13.13;;
3343;SDS011;1685;53.104;8.228;2024-02-14T11:21:27;27.27;;;12.90;;
3343;SDS011;1685;53.104;8.228;2024-02-14T11:23:55;26.00;;;13.13;;
3343;SDS011;1685;53.104;8.228;2024-02-14T11:26:24;26.20;;;12.30;;
3343;SDS011;1685;53.104;8.228;2024-02-14T11:28:59;25.00;;;11.50;;
3343;SDS011;1685;53.104;8.228;2024-02-14T11:31:32;27.03;;;13.07;;
3343;SDS011;1685;53.104;8.228;2024-02-14T11:34:02;23.07;;;12.27;;
3343;SDS011;1685;53.104;8.228;2024-02-14T11:36:30;21.70;;;11.40;;
3343;SDS011;1685;53.104;8.228;2024-02-14T11:38:58;26.90;;;11.87;;
3343;SDS011;1685;53.104;8.228;2024-02-14T11:41:27;23.23;;;11.20;;
3343;SDS011;1685;53.104;8.228;2024-02-14T11:43:53;24.70;;;11.30;;
3343;SDS011;1685;53.104;8.228;2024-02-14T11:46:21;24.07;;;11.50;;
3343;SDS011;1685;53.104;8.228;2024-02-14T11:48:50;19.23;;;11.50;;
3343;SDS011;1685;53.104;8.228;2024-02-14T11:51:18;22.90;;;10.47;;
3343;SDS011;1685;53.104;8.228;2024-02-14T11:53:45;24.53;;;11.57;;
3343;SDS011;1685;53.104;8.228;2024-02-14T11:56:14;21.63;;;10.90;;
3343;SDS011;1685;53.104;8.228;2024-02-14T11:58:41;20.10;;;10.83;;
3343;SDS011;1685;53.104;8.228;2024-02-14T12:01:08;20.33;;;10.83;;
3343;SDS011;1685;53.104;8.228;2024-02-14T12:03:37;18.73;;;10.07;;
3343;SDS011;1685;53.104;8.228;2024-02-14T12:06:06;17.50;;;9.87;;
3343;SDS011;1685;53.104;8.228;2024-02-14T12:08:33;17.23;;;9.43;;
3343;SDS011;1685;53.104;8.228;2024-02-14T12:11:01;17.83;;;9.07;;
3343;SDS011;1685;53.104;8.228;2024-02-14T12:13:28;15.23;;;8.90;;
3343;SDS011;1685;53.104;8.228;2024-02-14T12:15:58;20.33;;;9.90;;
3343;SDS011;1685;53.104;8.228;2024-02-14T12:18:26;16.33;;;10.00;;
3343;SDS011;1685;53.104;8.228;2024-02-14T12:21:02;16.93;;;9.13;;
3343;SDS011;1685;53.104;8.228;2024-02-14T12:23:34;17.87;;;9.03;;
3343;SDS011;1685;53.104;8.228;2024-02-14T12:26:01;17.90;;;10.30;;
3343;SDS011;1685;53.104;8.228;2024-02-14T12:28:29;16.13;;;9.60;;
3343;SDS011;1685;53.104;8.228;2024-02-14T12:30:56;15.13;;;9.13;;
3343;SDS011;1685;53.104;8.228;2024-02-14T12:33:24;16.77;;;10.17;;
3343;SDS011;1685;53.104;8.228;2024-02-14T12:35:53;14.67;;;9.80;;
3343;SDS011;1685;53.104;8.228;2024-02-14T12:38:22;12.50;;;8.03;;
3343;SDS011;1685;53.104;8.228;2024-02-14T12:40:50;18.27;;;10.00;;
3343;SDS011;1685;53.104;8.228;2024-02-14T12:43:19;19.27;;;10.03;;
3343;SDS011;1685;53.104;8.228;2024-02-14T12:45:46;20.53;;;10.43;;
3343;SDS011;1685;53.104;8.228;2024-02-14T12:48:21;17.27;;;9.83;;
3343;SDS011;1685;53.104;8.228;2024-02-14T12:50:49;17.80;;;9.60;;
3343;SDS011;1685;53.104;8.228;2024-02-14T12:53:17;15.83;;;9.67;;
3343;SDS011;1685;53.104;8.228;2024-02-14T12:55:45;14.30;;;9.07;;
3343;SDS011;1685;53.104;8.228;2024-02-14T12:58:14;19.10;;;10.33;;
3343;SDS011;1685;53.104;8.228;2024-02-14T13:00:42;17.97;;;10.37;;
3343;SDS011;1685;53.104;8.228;2024-02-14T13:03:09;16.83;;;9.70;;
3343;SDS011;1685;53.104;8.228;2024-02-14T13:05:37;17.30;;;9.87;;
3343;SDS011;1685;53.104;8.228;2024-02-14T13:08:04;15.37;;;10.50;;
3343;SDS011;1685;53.104;8.228;2024-02-14T13:10:32;18.07;;;10.60;;
3343;SDS011;1685;53.104;8.228;2024-02-14T13:12:59;17.77;;;10.07;;
3343;SDS011;1685;53.104;8.228;2024-02-14T13:15:28;17.87;;;10.30;;
3343;SDS011;1685;53.104;8.228;2024-02-14T13:17:55;19.20;;;11.50;;
3343;SDS011;1685;53.104;8.228;2024-02-14T13:20:24;17.43;;;9.70;;
3343;SDS011;1685;53.104;8.228;2024-02-14T13:22:51;16.73;;;10.90;;
3343;SDS011;1685;53.104;8.228;2024-02-14T13:25:19;21.00;;;11.40;;
3343;SDS011;1685;53.104;8.228;2024-02-14T13:27:46;19.57;;;11.27;;
3343;SDS011;1685;53.104;8.228;2024-02-14T13:30:14;18.57;;;11.63;;
3343;SDS011;1685;53.104;8.228;2024-02-14T13:32:42;18.77;;;11.17;;
3343;SDS011;1685;53.104;8.228;2024-02-14T13:35:09;17.43;;;10.70;;
3343;SDS011;1685;53.104;8.228;2024-02-14T13:37:38;13.57;;;9.47;;
3343;SDS011;1685;53.104;8.228;2024-02-14T13:40:06;19.27;;;11.80;;
3343;SDS011;1685;53.104;8.228;2024-02-14T13:42:35;21.70;;;11.80;;
3343;SDS011;1685;53.104;8.228;2024-02-14T13:45:03;20.10;;;10.80;;
3343;SDS011;1685;53.104;8.228;2024-02-14T13:47:34;17.67;;;10.70;;
3343;SDS011;1685;53.104;8.228;2024-02-14T13:50:05;17.57;;;9.77;;
3343;SDS011;1685;53.104;8.228;2024-02-14T13:52:33;20.77;;;11.00;;
3343;SDS011;1685;53.104;8.228;2024-02-14T13:55:01;20.37;;;11.07;;
3343;SDS011;1685;53.104;8.228;2024-02-14T13:57:30;18.57;;;11.80;;
3343;SDS011;1685;53.104;8.228;2024-02-14T13:59:57;21.57;;;10.83;;
3343;SDS011;1685;53.104;8.228;2024-02-14T14:02:24;30.63;;;12.40;;
3343;SDS011;1685;53.104;8.228;2024-02-14T14:04:51;15.13;;;10.00;;
3343;SDS011;1685;53.104;8.228;2024-02-14T14:07:21;17.23;;;9.87;;
3343;SDS011;1685;53.104;8.228;2024-02-14T14:09:49;18.33;;;11.43;;
3343;SDS011;1685;53.104;8.228;2024-02-14T14:12:16;17.63;;;11.20;;
3343;SDS011;1685;53.104;8.228;2024-02-14T14:14:43;16.90;;;10.77;;
3343;SDS011;1685;53.104;8.228;2024-02-14T14:17:11;17.77;;;10.40;;
3343;SDS011;1685;53.104;8.228;2024-02-14T14:19:38;16.43;;;10.07;;
3343;SDS011;1685;53.104;8.228;2024-02-14T14:22:05;17.33;;;9.83;;
3343;SDS011;1685;53.104;8.228;2024-02-14T14:24:34;19.20;;;11.00;;
3343;SDS011;1685;53.104;8.228;2024-02-14T14:27:01;16.93;;;10.23;;
3343;SDS011;1685;53.104;8.228;2024-02-14T14:29:28;16.80;;;10.47;;
3343;SDS011;1685;53.104;8.228;2024-02-14T14:31:56;14.20;;;10.33;;
3343;SDS011;1685;53.104;8.228;2024-02-14T14:34:25;13.17;;;9.50;;
3343;SDS011;1685;53.104;8.228;2024-02-14T14:36:55;16.07;;;8.93;;
3343;SDS011;1685;53.104;8.228;2024-02-14T14:39:22;14.03;;;10.53;;
3343;SDS011;1685;53.104;8.228;2024-02-14T14:41:50;14.83;;;9.90;;
3343;SDS011;1685;53.104;8.228;2024-02-14T14:44:18;13.70;;;9.40;;
3343;SDS011;1685;53.104;8.228;2024-02-14T14:46:45;14.30;;;9.90;;
3343;SDS011;1685;53.104;8.228;2024-02-14T14:49:12;14.50;;;9.87;;
3343;SDS011;1685;53.104;8.228;2024-02-14T14:51:40;16.93;;;10.43;;
3343;SDS011;1685;53.104;8.228;2024-02-14T14:54:07;13.93;;;9.70;;
3343;SDS011;1685;53.104;8.228;2024-02-14T14:56:34;19.27;;;10.60;;
3343;SDS011;1685;53.104;8.228;2024-02-14T14:59:03;12.97;;;9.90;;